createdAt,value
2019-03-27T00:00:49.170Z,21.60
2019-03-27T00:03:22.465Z,21.60
2019-03-27T00:05:56.418Z,21.60
2019-03-27T00:08:29.642Z,21.60
2019-03-27T00:11:04.185Z,21.60
2019-03-27T00:13:37.498Z,21.70
2019-03-27T00:16:11.026Z,21.70
2019-03-27T00:18:46.268Z,21.70
2019-03-27T00:21:20.067Z,21.70
2019-03-27T00:23:53.389Z,21.80
2019-03-27T00:26:26.707Z,21.80
2019-03-27T00:28:59.913Z,21.80
2019-03-27T00:31:33.594Z,21.80
2019-03-27T00:34:06.803Z,21.80
2019-03-27T00:36:40.917Z,21.90
2019-03-27T00:39:14.307Z,21.90
2019-03-27T00:41:48.391Z,21.90
2019-03-27T00:44:21.578Z,22.00
2019-03-27T00:46:55.189Z,21.90
2019-03-27T00:49:28.382Z,22.00
2019-03-27T00:52:02.125Z,22.00
2019-03-27T00:54:36.420Z,22.00
2019-03-27T00:57:09.894Z,22.00
2019-03-27T00:59:43.125Z,22.00
2019-03-27T01:02:16.755Z,21.90
2019-03-27T01:04:50.585Z,22.00
2019-03-27T01:07:28.406Z,21.90
2019-03-27T01:10:02.875Z,22.00
2019-03-27T01:12:37.624Z,22.00
2019-03-27T01:18:33.839Z,22.00
2019-03-27T01:21:07.731Z,22.00
2019-03-27T01:23:41.063Z,22.00
2019-03-27T01:26:14.410Z,22.10
2019-03-27T01:28:51.950Z,22.10
2019-03-27T01:31:27.017Z,22.20
2019-03-27T01:34:03.039Z,22.20
2019-03-27T01:36:36.901Z,22.20
2019-03-27T01:39:10.803Z,22.30
2019-03-27T01:41:51.172Z,22.30
2019-03-27T01:44:24.782Z,22.30
2019-03-27T01:46:58.389Z,22.40
2019-03-27T01:49:31.872Z,22.40
2019-03-27T01:52:07.910Z,22.40
2019-03-27T01:54:40.134Z,22.40
2019-03-27T01:57:13.674Z,22.40
2019-03-27T01:59:47.065Z,22.40
2019-03-27T02:02:20.654Z,22.40
2019-03-27T02:04:54.822Z,22.40
2019-03-27T02:07:28.707Z,22.40
2019-03-27T02:10:02.461Z,22.40
2019-03-27T02:12:36.578Z,22.50
2019-03-27T02:15:13.235Z,22.60
2019-03-27T02:17:51.420Z,22.60
2019-03-27T02:20:30.335Z,22.70
2019-03-27T02:23:07.188Z,22.70
2019-03-27T02:25:40.800Z,22.70
2019-03-27T02:28:15.870Z,22.80
2019-03-27T02:30:49.414Z,22.80
2019-03-27T02:33:23.119Z,22.90
2019-03-27T02:35:59.063Z,22.90
2019-03-27T02:38:32.529Z,22.90
2019-03-27T02:41:06.222Z,23.00
2019-03-27T02:43:39.663Z,23.00
2019-03-27T02:46:24.505Z,23.00
2019-03-27T02:48:49.042Z,23.10
2019-03-27T02:51:23.348Z,23.20
2019-03-27T02:53:58.355Z,23.30
2019-03-27T02:56:32.951Z,23.40
2019-03-27T02:59:07.517Z,23.40
2019-03-27T03:01:42.910Z,23.50
2019-03-27T03:04:16.577Z,23.60
2019-03-27T03:06:49.938Z,23.80
2019-03-27T03:09:24.451Z,23.90
2019-03-27T03:11:58.127Z,24.10
2019-03-27T03:14:31.838Z,24.30
2019-03-27T03:17:13.046Z,24.50
2019-03-27T03:19:49.504Z,24.70
2019-03-27T03:22:21.863Z,24.90
2019-03-27T03:24:56.494Z,24.90
2019-03-27T03:27:30.055Z,25.10
2019-03-27T03:30:05.143Z,25.40
2019-03-27T03:32:41.412Z,25.50
2019-03-27T03:35:26.210Z,25.60
2019-03-27T03:37:59.654Z,25.70
2019-03-27T03:40:32.992Z,25.80
2019-03-27T03:43:07.027Z,25.80
2019-03-27T03:45:41.059Z,25.80
2019-03-27T03:48:14.572Z,25.80
2019-03-27T03:50:48.370Z,25.90
2019-03-27T03:53:21.710Z,25.90
2019-03-27T03:55:57.003Z,25.90
2019-03-27T03:58:32.548Z,26.00
2019-03-27T04:01:07.735Z,26.10
2019-03-27T04:03:43.466Z,26.30
2019-03-27T04:06:18.157Z,26.50
2019-03-27T04:08:51.561Z,26.60
2019-03-27T04:11:24.908Z,26.70
2019-03-27T04:13:58.373Z,26.80
2019-03-27T04:16:33.507Z,27.10
2019-03-27T04:19:07.131Z,27.20
2019-03-27T04:21:40.879Z,27.10
2019-03-27T04:24:14.376Z,27.10
2019-03-27T04:26:47.961Z,27.00
2019-03-27T04:29:21.286Z,26.80
2019-03-27T04:31:54.644Z,26.90
2019-03-27T04:34:28.422Z,27.00
2019-03-27T04:37:02.256Z,27.10
2019-03-27T04:39:36.069Z,27.10
2019-03-27T04:42:10.633Z,27.00
2019-03-27T04:44:44.070Z,26.90
2019-03-27T04:47:31.431Z,27.00
2019-03-27T04:49:57.865Z,27.10
2019-03-27T04:52:31.759Z,27.00
2019-03-27T04:55:05.141Z,27.10
2019-03-27T04:57:43.997Z,27.20
2019-03-27T05:00:24.208Z,27.30
2019-03-27T05:03:06.547Z,27.40
2019-03-27T05:05:34.308Z,27.50
2019-03-27T05:08:08.013Z,27.70
2019-03-27T05:10:41.263Z,27.70
2019-03-27T05:13:15.392Z,27.70
2019-03-27T05:15:48.680Z,27.80
2019-03-27T05:18:23.769Z,27.70
2019-03-27T05:20:57.515Z,27.70
2019-03-27T05:23:31.144Z,27.90
2019-03-27T05:26:08.573Z,28.00
2019-03-27T05:28:42.159Z,28.20
2019-03-27T05:31:17.174Z,28.30
2019-03-27T05:44:14.260Z,28.50
2019-03-27T05:46:48.464Z,28.50
2019-03-27T05:49:24.243Z,28.40
2019-03-27T05:51:58.318Z,28.30
2019-03-27T05:57:51.806Z,28.10
2019-03-27T06:00:24.991Z,28.10
2019-03-27T06:02:58.804Z,27.80
2019-03-27T06:05:45.046Z,27.70
2019-03-27T06:11:59.731Z,27.40
2019-03-27T06:14:33.573Z,27.50
2019-03-27T06:17:07.723Z,27.50
2019-03-27T06:19:41.522Z,27.60
2019-03-27T06:22:16.582Z,27.60
2019-03-27T06:24:50.655Z,27.70
2019-03-27T06:27:24.276Z,27.60
2019-03-27T06:29:59.163Z,27.50
2019-03-27T06:32:32.415Z,27.50
2019-03-27T06:35:05.965Z,27.60
2019-03-27T06:37:39.626Z,27.80
2019-03-27T06:40:26.082Z,28.00
2019-03-27T06:42:59.651Z,28.30
2019-03-27T06:45:33.055Z,28.70
2019-03-27T06:48:26.765Z,28.90
2019-03-27T06:54:36.973Z,29.10
2019-03-27T06:57:11.398Z,29.30
2019-03-27T06:59:45.034Z,29.40
2019-03-27T07:02:19.879Z,29.40
2019-03-27T07:04:53.405Z,29.30
2019-03-27T07:07:27.445Z,29.20
2019-03-27T07:10:04.678Z,29.00
2019-03-27T07:12:38.396Z,28.90
2019-03-27T07:15:13.178Z,29.30
2019-03-27T07:17:46.738Z,29.70
2019-03-27T07:20:21.152Z,29.60
2019-03-27T07:22:54.707Z,29.60
2019-03-27T07:25:29.099Z,29.10
2019-03-27T07:28:02.922Z,29.00
2019-03-27T07:30:36.994Z,28.60
2019-03-27T07:33:10.799Z,28.30
2019-03-27T07:35:44.851Z,28.10
2019-03-27T07:38:19.174Z,27.90
2019-03-27T07:40:53.605Z,27.30
2019-03-27T07:43:27.175Z,27.30
2019-03-27T07:46:00.654Z,27.00
2019-03-27T07:48:34.005Z,26.90
2019-03-27T07:51:07.491Z,26.80
2019-03-27T07:53:40.868Z,26.70
2019-03-27T07:56:14.821Z,26.60
2019-03-27T07:58:50.798Z,26.60
2019-03-27T08:01:22.873Z,26.60
2019-03-27T08:03:56.080Z,26.60
2019-03-27T08:06:29.813Z,26.50
2019-03-27T08:09:03.157Z,26.50
2019-03-27T08:11:37.200Z,26.50
2019-03-27T08:14:10.931Z,26.50
2019-03-27T08:16:44.570Z,26.50
2019-03-27T08:19:17.757Z,26.50
2019-03-27T08:21:51.379Z,26.60
2019-03-27T08:24:28.834Z,26.60
2019-03-27T08:27:02.249Z,26.60
2019-03-27T08:29:35.565Z,26.50
2019-03-27T08:32:09.171Z,26.40
2019-03-27T08:34:42.898Z,26.40
2019-03-27T08:37:17.714Z,26.30
2019-03-27T08:39:52.284Z,26.20
2019-03-27T08:42:26.986Z,26.10
2019-03-27T08:45:00.398Z,26.00
2019-03-27T08:47:34.392Z,26.00
2019-03-27T08:50:10.687Z,25.90
2019-03-27T08:52:45.810Z,25.90
2019-03-27T08:55:19.239Z,25.90
2019-03-27T08:57:53.006Z,25.90
2019-03-27T09:00:31.367Z,26.00
2019-03-27T09:03:04.833Z,26.00
2019-03-27T09:05:38.000Z,25.90
2019-03-27T09:08:13.135Z,25.90
2019-03-27T09:10:46.470Z,25.90
2019-03-27T09:13:20.651Z,25.90
2019-03-27T09:15:54.618Z,25.90
2019-03-27T09:18:28.370Z,25.90
2019-03-27T09:21:02.882Z,25.80
2019-03-27T09:23:36.789Z,25.80
2019-03-27T09:26:11.180Z,25.80
2019-03-27T09:28:44.874Z,25.80
2019-03-27T09:31:19.399Z,25.80
2019-03-27T09:33:55.751Z,25.70
2019-03-27T09:36:30.071Z,25.70
2019-03-27T09:39:03.845Z,25.70
2019-03-27T09:41:37.160Z,25.60
2019-03-27T09:44:10.796Z,25.70
2019-03-27T09:46:44.100Z,25.60
2019-03-27T09:49:21.307Z,25.60
2019-03-27T09:51:54.632Z,25.60
2019-03-27T09:54:29.407Z,25.60
2019-03-27T09:57:02.805Z,25.50
2019-03-27T09:59:36.632Z,25.50
2019-03-27T10:02:09.844Z,25.40
2019-03-27T10:04:43.178Z,25.40
2019-03-27T10:07:16.678Z,25.40
2019-03-27T10:09:50.569Z,25.40
2019-03-27T10:12:23.911Z,25.40
2019-03-27T10:14:57.860Z,25.40
2019-03-27T10:17:31.072Z,25.40
2019-03-27T10:20:04.823Z,25.40
2019-03-27T10:22:38.237Z,25.30
2019-03-27T10:25:12.116Z,25.30
2019-03-27T10:27:45.435Z,25.30
2019-03-27T10:30:24.005Z,25.30
2019-03-27T10:32:56.622Z,25.30
2019-03-27T10:35:30.200Z,25.30
2019-03-27T10:38:03.610Z,25.30
2019-03-27T10:40:37.059Z,25.20
2019-03-27T10:43:10.420Z,25.20
2019-03-27T10:45:44.059Z,25.20
2019-03-27T10:48:17.708Z,25.20
2019-03-27T10:50:51.282Z,25.20
2019-03-27T10:53:24.706Z,25.20
2019-03-27T10:55:58.767Z,25.20
2019-03-27T10:58:33.257Z,25.20
2019-03-27T11:01:07.294Z,25.20
2019-03-27T11:03:41.086Z,25.20
2019-03-27T11:06:15.160Z,25.20
2019-03-27T11:08:49.974Z,25.20
2019-03-27T11:11:24.519Z,25.10
2019-03-27T11:13:58.661Z,25.20
2019-03-27T11:16:31.997Z,25.20
2019-03-27T11:19:06.398Z,25.10
2019-03-27T11:21:40.428Z,25.10
2019-03-27T11:24:14.362Z,25.10
2019-03-27T11:26:48.392Z,25.10
2019-03-27T11:29:21.678Z,25.10
2019-03-27T11:31:55.304Z,25.10
2019-03-27T11:34:28.640Z,25.00
2019-03-27T11:37:02.129Z,25.10
2019-03-27T11:39:37.614Z,25.10
2019-03-27T11:42:13.388Z,25.10
2019-03-27T11:44:50.411Z,25.00
2019-03-27T11:47:23.832Z,25.00
2019-03-27T11:49:57.396Z,25.00
2019-03-27T11:52:32.121Z,25.00
2019-03-27T11:55:06.038Z,25.00
2019-03-27T11:57:42.460Z,25.00
2019-03-27T12:00:16.405Z,24.90
2019-03-27T12:02:51.227Z,24.90
2019-03-27T12:05:24.528Z,24.90
2019-03-27T12:07:58.062Z,24.90
2019-03-27T12:10:32.383Z,24.90
2019-03-27T12:13:08.830Z,24.90
2019-03-27T12:15:43.081Z,24.80
2019-03-27T12:18:17.504Z,24.90
2019-03-27T12:20:59.042Z,24.80
2019-03-27T12:23:29.064Z,24.80
2019-03-27T12:26:01.854Z,24.80
2019-03-27T12:28:49.733Z,24.80
2019-03-27T12:31:49.933Z,24.70
2019-03-27T12:34:23.521Z,24.70
2019-03-27T12:36:56.804Z,24.70
2019-03-27T12:39:30.295Z,24.60
2019-03-27T12:42:03.581Z,24.60
2019-03-27T12:44:38.345Z,24.60
2019-03-27T12:47:12.856Z,24.60
2019-03-27T12:49:46.952Z,24.60
2019-03-27T12:53:12.341Z,24.60
2019-03-27T12:55:28.628Z,24.50
2019-03-27T12:58:05.431Z,24.50
2019-03-27T13:00:40.270Z,24.50
2019-03-27T13:03:14.767Z,24.50
2019-03-27T13:05:48.170Z,24.50
2019-03-27T13:08:22.001Z,24.50
2019-03-27T13:10:56.545Z,24.50
2019-03-27T13:13:32.122Z,24.40
2019-03-27T13:16:06.532Z,24.40
2019-03-27T13:18:39.844Z,24.40
2019-03-27T13:21:25.513Z,24.50
2019-03-27T13:23:49.356Z,24.40
2019-03-27T13:26:23.983Z,24.40
2019-03-27T13:28:57.285Z,24.40
2019-03-27T13:31:30.798Z,24.30
2019-03-27T13:34:04.407Z,24.30
2019-03-27T13:36:38.846Z,24.30
2019-03-27T13:39:12.478Z,24.40
2019-03-27T13:41:47.177Z,24.40
2019-03-27T13:44:21.746Z,24.30
2019-03-27T13:46:55.745Z,24.30
2019-03-27T13:49:29.324Z,24.40
2019-03-27T13:52:06.599Z,24.40
2019-03-27T13:54:40.116Z,24.40
2019-03-27T13:57:14.188Z,24.40
2019-03-27T13:59:47.487Z,24.40
2019-03-27T14:02:21.310Z,24.40
2019-03-27T14:04:55.547Z,24.40
2019-03-27T14:07:29.362Z,24.40
2019-03-27T14:10:06.526Z,24.40
2019-03-27T14:12:40.738Z,24.40
2019-03-27T14:15:14.689Z,24.40
2019-03-27T14:17:48.500Z,24.30
2019-03-27T14:20:22.310Z,24.30
2019-03-27T14:22:55.981Z,24.30
2019-03-27T14:25:29.418Z,24.20
2019-03-27T14:28:03.314Z,24.30
2019-03-27T14:30:53.515Z,24.30
2019-03-27T14:33:27.309Z,24.30
2019-03-27T14:36:00.573Z,24.20
2019-03-27T14:38:34.358Z,24.20
2019-03-27T14:41:07.651Z,24.20
2019-03-27T14:43:41.584Z,24.20
2019-03-27T14:46:15.619Z,24.20
2019-03-27T14:48:49.579Z,24.20
2019-03-27T14:51:22.895Z,24.10
2019-03-27T14:53:56.632Z,24.00
2019-03-27T14:56:31.248Z,24.10
2019-03-27T14:59:04.584Z,24.10
2019-03-27T15:01:38.548Z,24.20
2019-03-27T15:04:12.000Z,24.20
2019-03-27T15:06:45.302Z,24.10
2019-03-27T15:09:19.199Z,24.10
2019-03-27T15:11:52.723Z,24.00
2019-03-27T15:14:26.113Z,24.00
2019-03-27T15:17:06.518Z,24.10
2019-03-27T15:19:41.947Z,24.10
2019-03-27T15:22:22.277Z,24.10
2019-03-27T15:24:54.046Z,24.10
2019-03-27T15:27:28.035Z,24.00
2019-03-27T15:30:05.851Z,24.10
2019-03-27T15:32:50.641Z,24.00
2019-03-27T15:35:18.961Z,24.00
2019-03-27T15:41:30.869Z,23.90
2019-03-27T15:48:19.774Z,23.90
2019-03-27T15:50:58.594Z,23.90
2019-03-27T15:54:01.721Z,24.00
2019-03-27T15:56:40.267Z,24.00
2019-03-27T15:59:17.583Z,23.90
2019-03-27T16:01:52.696Z,23.90
2019-03-27T16:04:26.257Z,23.80
2019-03-27T16:07:01.406Z,23.80
2019-03-27T16:09:38.227Z,23.70
2019-03-27T16:12:12.484Z,23.70
2019-03-27T16:14:45.757Z,23.70
2019-03-27T16:17:19.088Z,23.70
2019-03-27T16:19:52.598Z,23.60
2019-03-27T16:22:27.662Z,23.60
2019-03-27T16:25:00.962Z,23.60
2019-03-27T16:27:37.170Z,23.60
2019-03-27T16:30:10.931Z,23.60
2019-03-27T16:32:44.405Z,23.60
2019-03-27T16:35:17.589Z,23.60
2019-03-27T16:37:51.319Z,23.60
2019-03-27T16:40:44.876Z,23.60
2019-03-27T16:43:18.622Z,23.60
2019-03-27T16:45:56.623Z,23.60
2019-03-27T16:48:30.398Z,23.60
2019-03-27T16:51:03.549Z,23.60
2019-03-27T16:53:37.214Z,23.70
2019-03-27T16:56:10.724Z,23.60
2019-03-27T16:58:46.924Z,23.60
2019-03-27T17:01:21.665Z,23.60
2019-03-27T17:03:55.252Z,23.60
2019-03-27T17:06:29.326Z,23.60
2019-03-27T17:09:03.003Z,23.60
2019-03-27T17:11:37.760Z,23.60
2019-03-27T17:14:12.578Z,23.60
2019-03-27T17:16:46.284Z,23.60
2019-03-27T17:19:19.697Z,23.60
2019-03-27T17:21:52.821Z,23.60
2019-03-27T17:24:26.588Z,23.60
2019-03-27T17:27:00.350Z,23.60
2019-03-27T17:29:33.948Z,23.60
2019-03-27T17:32:10.248Z,23.60
2019-03-27T17:34:43.875Z,23.50
2019-03-27T17:37:17.378Z,23.50
2019-03-27T17:39:50.745Z,23.50
2019-03-27T17:42:24.057Z,23.50
2019-03-27T17:44:57.486Z,23.50
2019-03-27T17:47:30.666Z,23.40
2019-03-27T17:50:04.582Z,23.40
2019-03-27T17:52:38.352Z,23.50
2019-03-27T17:55:12.722Z,23.50
2019-03-27T17:57:46.017Z,23.50
2019-03-27T18:00:22.939Z,23.40
2019-03-27T18:02:56.129Z,23.50
2019-03-27T18:05:29.836Z,23.50
2019-03-27T18:08:03.155Z,23.50
2019-03-27T18:10:37.255Z,23.50
2019-03-27T18:13:10.544Z,23.50
2019-03-27T18:15:43.982Z,23.50
2019-03-27T18:18:17.188Z,23.50
2019-03-27T18:20:50.990Z,23.50
2019-03-27T18:23:24.157Z,23.50
2019-03-27T18:25:57.913Z,23.50
2019-03-27T18:28:31.122Z,23.50
2019-03-27T18:31:04.442Z,23.50
2019-03-27T18:33:37.787Z,23.50
2019-03-27T18:36:11.397Z,23.50
2019-03-27T18:38:46.013Z,23.50
2019-03-27T18:41:19.445Z,23.50
2019-03-27T18:43:52.635Z,23.60
2019-03-27T18:46:26.562Z,23.60
2019-03-27T18:48:59.745Z,23.50
2019-03-27T18:51:33.435Z,23.50
2019-03-27T18:54:06.698Z,23.60
2019-03-27T18:56:40.190Z,23.50
2019-03-27T18:59:13.910Z,23.50
2019-03-27T19:01:47.676Z,23.50
2019-03-27T19:04:21.469Z,23.40
2019-03-27T19:06:54.936Z,23.40
2019-03-27T19:09:29.048Z,23.40
2019-03-27T19:12:02.229Z,23.50
2019-03-27T19:14:36.212Z,23.60
2019-03-27T19:17:09.447Z,23.50
2019-03-27T19:19:42.816Z,23.50
2019-03-27T19:22:17.032Z,23.50
2019-03-27T19:24:50.816Z,23.50
2019-03-27T19:27:24.703Z,23.50
2019-03-27T19:29:58.089Z,23.50
2019-03-27T19:32:32.500Z,23.50
2019-03-27T19:35:08.781Z,23.50
2019-03-27T19:37:41.620Z,23.50
2019-03-27T19:40:15.704Z,23.50
2019-03-27T19:42:49.335Z,23.50
2019-03-27T19:45:23.066Z,23.50
2019-03-27T19:47:56.259Z,23.40
2019-03-27T19:50:30.766Z,23.50
2019-03-27T19:53:04.062Z,23.50
2019-03-27T19:55:37.684Z,23.60
2019-03-27T19:58:10.950Z,23.60
2019-03-27T20:00:44.553Z,23.60
2019-03-27T20:03:17.848Z,23.50
2019-03-27T20:05:51.817Z,23.50
2019-03-27T20:08:25.112Z,23.50
2019-03-27T20:10:58.438Z,23.40
2019-03-27T20:13:32.450Z,23.50
2019-03-27T20:16:06.547Z,23.40
2019-03-27T20:18:39.861Z,23.40
2019-03-27T20:21:13.365Z,23.40
2019-03-27T20:23:46.665Z,23.40
2019-03-27T20:26:20.041Z,23.40
2019-03-27T20:28:54.291Z,23.40
2019-03-27T20:31:27.999Z,23.40
2019-03-27T20:34:01.285Z,23.40
2019-03-27T20:36:35.410Z,23.40
2019-03-27T20:39:10.316Z,23.40
2019-03-27T20:41:44.734Z,23.30
2019-03-27T20:44:18.047Z,23.30
2019-03-27T20:46:51.827Z,23.30
2019-03-27T20:49:25.146Z,23.30
2019-03-27T20:51:59.051Z,23.30
2019-03-27T20:54:32.248Z,23.30
2019-03-27T20:57:07.357Z,23.20
2019-03-27T20:59:40.632Z,23.20
2019-03-27T21:02:14.432Z,23.20
2019-03-27T21:04:47.637Z,23.20
2019-03-27T21:07:24.419Z,23.20
2019-03-27T21:09:55.979Z,23.20
2019-03-27T21:12:29.502Z,23.10
2019-03-27T21:15:02.722Z,23.10
2019-03-27T21:17:36.389Z,23.10
2019-03-27T21:20:09.890Z,23.10
2019-03-27T21:22:43.631Z,23.10
2019-03-27T21:25:16.811Z,23.10
2019-03-27T21:27:50.715Z,23.10
2019-03-27T21:30:24.021Z,23.00
2019-03-27T21:33:14.915Z,23.00
2019-03-27T21:35:48.388Z,23.00
2019-03-27T21:38:22.251Z,23.00
2019-03-27T21:40:56.490Z,23.00
2019-03-27T21:43:30.583Z,22.90
2019-03-27T21:46:03.837Z,23.00
2019-03-27T21:48:37.762Z,23.00
2019-03-27T21:51:11.056Z,23.00
2019-03-27T21:53:50.439Z,23.00
2019-03-27T21:56:20.358Z,23.00
2019-03-27T21:58:54.112Z,23.00
2019-03-27T22:01:27.255Z,23.00
2019-03-27T22:04:01.771Z,23.00
2019-03-27T22:06:35.458Z,23.00
2019-03-27T22:09:09.817Z,23.00
2019-03-27T22:11:44.508Z,23.00
2019-03-27T22:14:17.899Z,23.00
2019-03-27T22:16:51.802Z,23.00
2019-03-27T22:19:26.088Z,23.00
2019-03-27T22:22:00.165Z,23.00
2019-03-27T22:24:33.615Z,22.90
2019-03-27T22:27:06.873Z,22.90
2019-03-27T22:29:40.204Z,22.90
2019-03-27T22:32:13.422Z,22.90
2019-03-27T22:34:46.813Z,22.90
2019-03-27T22:37:20.139Z,22.80
2019-03-27T22:39:53.866Z,22.80
2019-03-27T22:42:27.405Z,22.80
2019-03-27T22:45:00.780Z,22.80
2019-03-27T22:47:34.134Z,22.80
2019-03-27T22:50:09.238Z,22.80
2019-03-27T22:52:42.513Z,22.80
2019-03-27T22:55:16.130Z,22.70
2019-03-27T22:57:49.741Z,22.80
2019-03-27T23:00:24.570Z,22.80
2019-03-27T23:02:59.713Z,22.80
2019-03-27T23:05:33.138Z,22.80
2019-03-27T23:08:06.710Z,22.80
2019-03-27T23:10:40.151Z,22.80
2019-03-27T23:13:15.016Z,22.80
2019-03-27T23:15:48.846Z,22.80
2019-03-27T23:18:22.842Z,22.80
2019-03-27T23:20:57.064Z,22.70
2019-03-27T23:23:30.346Z,22.80
2019-03-27T23:26:03.883Z,22.70
2019-03-27T23:28:37.527Z,22.70
2019-03-27T23:31:10.905Z,22.70
2019-03-27T23:33:47.800Z,22.70
2019-03-27T23:36:22.457Z,22.70
2019-03-27T23:38:55.814Z,22.70
2019-03-27T23:41:29.633Z,22.80
2019-03-27T23:44:03.687Z,22.80
2019-03-27T23:46:37.105Z,22.80
2019-03-27T23:49:10.772Z,22.80
2019-03-27T23:51:44.056Z,22.80
2019-03-27T23:54:17.294Z,22.80
2019-03-27T23:56:50.572Z,22.80
2019-03-27T23:59:23.929Z,22.80
